Time;durP1;ratioP1;P1;durP2;ratioP2;P2;SDS_P1;SDS_P2;PMS_P1;PMS_P2;Temp;Humidity;BMP_temperature;BMP_pressure;BME280_temperature;BME280_humidity;BME280_pressure;Samples;Min_cycle;Max_cycle;Signal;HPM_P1;HPM_P2
2022/04/05 00:01:01;;;;;;;;;;;5.90;99.90;;;;;;5093910;28;19935;-54
2022/04/05 00:03:30;;;;;;;;;;;6.00;99.90;;;;;;5094600;28;19924;-55
2022/04/05 00:05:57;;;;;;;;;;;6.00;99.90;;;;;;5094494;28;19925;-54
2022/04/05 00:08:23;;;;;;;;;;;6.00;99.90;;;;;;5090457;28;19979;-54
2022/04/05 00:10:50;;;;;;;;;;;6.00;99.90;;;;;;5076397;28;20378;-54
2022/04/05 00:13:17;;;;;;;;;;;5.90;99.90;;;;;;5080675;28;20000;-54
2022/04/05 00:15:44;;;;;;;;;;;5.90;99.90;;;;;;5093620;28;19932;-54
2022/04/05 00:18:12;;;;;;;;;;;5.90;99.90;;;;;;5093435;28;19924;-54
2022/04/05 00:20:39;;;;;;;;;;;5.90;99.90;;;;;;5093608;28;19989;-54
2022/04/05 00:23:06;;;;;;;;;;;5.90;99.90;;;;;;5087896;28;20016;-54
2022/04/05 00:25:33;;;;;;;;;;;5.80;99.90;;;;;;5093125;28;19924;-54
2022/04/05 00:28:01;;;;;;;;;;;5.80;99.90;;;;;;5093480;28;19995;-54
2022/04/05 00:30:28;;;;;;;;;;;6.10;99.90;;;;;;5093558;28;20001;-54
2022/04/05 00:32:55;;;;;;;;;;;6.10;99.90;;;;;;5093470;28;19928;-53
2022/04/05 00:35:23;;;;;;;;;;;6.00;99.90;;;;;;5093243;28;19969;-53
2022/04/05 00:37:50;;;;;;;;;;;5.90;99.90;;;;;;5093387;28;19935;-53
2022/04/05 00:40:17;;;;;;;;;;;5.80;99.90;;;;;;5092905;28;19924;-53
2022/04/05 00:42:44;;;;;;;;;;;5.80;99.90;;;;;;5093154;28;19977;-55
2022/04/05 00:45:11;;;;;;;;;;;5.80;99.90;;;;;;5093231;28;19970;-54
2022/04/05 00:47:39;;;;;;;;;;;5.80;99.90;;;;;;5092847;28;19935;-54
2022/04/05 00:50:07;;;;;;;;;;;5.90;99.90;;;;;;5093491;28;19971;-55
2022/04/05 00:52:35;;;;;;;;;;;5.90;99.90;;;;;;5093037;28;20431;-54
2022/04/05 00:55:02;;;;;;;;;;;5.80;99.90;;;;;;5093278;28;19978;-54
2022/04/05 00:57:30;;;;;;;;;;;5.80;99.90;;;;;;5093019;28;20347;-54
2022/04/05 00:59:57;;;;;;;;;;;5.80;99.90;;;;;;5093293;28;19928;-54
2022/04/05 01:02:26;;;;;;;;;;;5.80;99.90;;;;;;5092418;28;19978;-54
2022/04/05 01:04:53;;;;;;;;;;;5.80;99.90;;;;;;5093203;28;19928;-54
2022/04/05 01:07:22;;;;;;;;;;;5.80;99.90;;;;;;5093093;28;19935;-55
2022/04/05 01:09:53;;;;;;;;;;;5.80;99.90;;;;;;5093101;28;19932;-55
2022/04/05 01:12:21;;;;;;;;;;;5.80;99.90;;;;;;5092781;28;19971;-55
2022/04/05 01:14:48;;;;;;;;;;;5.80;99.90;;;;;;5092362;28;19924;-54
2022/04/05 01:17:16;;;;;;;;;;;5.80;99.90;;;;;;5088211;28;19984;-54
2022/04/05 01:19:43;;;;;;;;;;;5.80;99.90;;;;;;5092762;28;20393;-55
2022/04/05 01:22:10;;;;;;;;;;;5.80;99.90;;;;;;5091785;28;19985;-55
2022/04/05 01:24:38;;;;;;;;;;;5.80;99.90;;;;;;5092735;28;19967;-55
2022/04/05 01:27:06;;;;;;;;;;;5.80;99.90;;;;;;5092808;28;19977;-55
2022/04/05 01:29:33;;;;;;;;;;;5.80;99.90;;;;;;5092343;28;19934;-54
2022/04/05 01:32:00;;;;;;;;;;;5.90;99.90;;;;;;5092255;28;19978;-54
2022/04/05 01:34:28;;;;;;;;;;;5.80;99.90;;;;;;5092569;28;19973;-54
2022/04/05 01:36:56;;;;;;;;;;;5.90;99.90;;;;;;5091767;28;20382;-54
2022/04/05 01:39:23;;;;;;;;;;;6.10;99.90;;;;;;5092398;28;19924;-54
2022/04/05 01:41:53;;;;;;;;;;;5.90;99.90;;;;;;5092448;28;19940;-55
2022/04/05 01:44:20;;;;;;;;;;;6.00;99.90;;;;;;5092707;28;19928;-54
2022/04/05 01:46:47;;;;;;;;;;;6.00;99.90;;;;;;5092444;28;19924;-55
2022/04/05 01:49:14;;;;;;;;;;;6.00;99.90;;;;;;5092000;28;20019;-55
2022/04/05 01:51:41;;;;;;;;;;;5.90;99.90;;;;;;5092456;28;20022;-55
2022/04/05 01:54:09;;;;;;;;;;;5.80;99.90;;;;;;5092280;28;19982;-54
2022/04/05 01:56:41;;;;;;;;;;;5.70;99.90;;;;;;5092330;28;19924;-55
2022/04/05 01:59:09;;;;;;;;;;;5.80;99.90;;;;;;5092723;28;19924;-54
2022/04/05 02:01:36;;;;;;;;;;;5.80;99.90;;;;;;5092010;28;20326;-54
2022/04/05 02:04:03;;;;;;;;;;;6.10;99.90;;;;;;5091712;28;20392;-54
2022/04/05 02:06:30;;;;;;;;;;;6.30;99.90;;;;;;5091956;28;19963;-55
2022/04/05 02:08:56;;;;;;;;;;;6.10;99.90;;;;;;5092015;28;19924;-54
2022/04/05 02:11:23;;;;;;;;;;;6.20;99.90;;;;;;5092226;28;19977;-54
2022/04/05 02:13:50;;;;;;;;;;;6.20;99.90;;;;;;5093169;28;20374;-54
2022/04/05 02:16:18;;;;;;;;;;;6.10;99.90;;;;;;5095793;28;19924;-54
2022/04/05 02:18:45;;;;;;;;;;;6.20;99.90;;;;;;5097063;28;19946;-54
2022/04/05 02:21:12;;;;;;;;;;;6.50;99.90;;;;;;5095662;28;20026;-55
2022/04/05 02:23:39;;;;;;;;;;;6.40;99.90;;;;;;5090284;28;19924;-56
2022/04/05 02:26:06;;;;;;;;;;;6.20;99.90;;;;;;5102698;28;19924;-55
2022/04/05 02:28:32;;;;;;;;;;;6.10;99.90;;;;;;5102373;28;19928;-55
2022/04/05 02:30:59;;;;;;;;;;;6.30;99.90;;;;;;5099654;28;19969;-55
2022/04/05 02:33:27;;;;;;;;;;;6.40;99.90;;;;;;5099321;28;19924;-56
2022/04/05 02:35:54;;;;;;;;;;;6.20;99.90;;;;;;5100098;28;19973;-54
2022/04/05 02:38:21;;;;;;;;;;;6.30;99.90;;;;;;5090683;28;20049;-54
2022/04/05 02:40:48;;;;;;;;;;;6.40;99.90;;;;;;5096327;28;19924;-54
2022/04/05 02:43:14;;;;;;;;;;;6.20;99.90;;;;;;5098651;28;19931;-54
2022/04/05 02:45:41;;;;;;;;;;;6.10;99.90;;;;;;5106109;28;19985;-55
2022/04/05 02:48:08;;;;;;;;;;;6.00;99.90;;;;;;5105136;28;20412;-55
2022/04/05 02:50:36;;;;;;;;;;;6.00;99.90;;;;;;5102411;28;19928;-55
2022/04/05 02:53:03;;;;;;;;;;;6.00;99.90;;;;;;5095279;28;19950;-55
2022/04/05 02:55:30;;;;;;;;;;;6.10;99.90;;;;;;5095619;28;19977;-54
2022/04/05 02:57:56;;;;;;;;;;;6.00;99.90;;;;;;5095811;28;19928;-54
2022/04/05 03:00:23;;;;;;;;;;;5.90;99.90;;;;;;5095809;28;20369;-54
2022/04/05 03:02:50;;;;;;;;;;;5.80;99.90;;;;;;5095366;28;19924;-54
2022/04/05 03:05:19;;;;;;;;;;;5.90;99.90;;;;;;5095425;28;20391;-54
2022/04/05 03:07:47;;;;;;;;;;;5.90;99.90;;;;;;5095378;28;19924;-54
2022/04/05 03:10:13;;;;;;;;;;;5.90;99.90;;;;;;5094475;28;19977;-53
2022/04/05 03:12:40;;;;;;;;;;;5.90;99.90;;;;;;5094596;28;19970;-54
2022/04/05 03:15:09;;;;;;;;;;;5.90;99.90;;;;;;5094671;28;20011;-54
2022/04/05 03:17:36;;;;;;;;;;;5.90;99.90;;;;;;5094766;28;19924;-55
2022/04/05 03:20:03;;;;;;;;;;;6.00;99.90;;;;;;5094997;28;20377;-54
2022/04/05 03:22:30;;;;;;;;;;;5.90;99.90;;;;;;5094872;28;19932;-54
2022/04/05 03:24:58;;;;;;;;;;;5.90;99.90;;;;;;5094200;28;19924;-55
2022/04/05 03:27:25;;;;;;;;;;;6.00;99.90;;;;;;5094840;28;19969;-54
2022/04/05 03:29:52;;;;;;;;;;;6.00;99.90;;;;;;5093717;28;20343;-55
2022/04/05 03:32:18;;;;;;;;;;;5.90;99.90;;;;;;5094303;28;20456;-54
2022/04/05 03:34:46;;;;;;;;;;;6.10;99.90;;;;;;5094128;28;19977;-54
2022/04/05 03:37:12;;;;;;;;;;;6.00;99.90;;;;;;5094750;28;19924;-54
2022/04/05 03:39:40;;;;;;;;;;;5.90;99.90;;;;;;5094675;28;19992;-56
2022/04/05 03:42:08;;;;;;;;;;;6.00;99.90;;;;;;5094174;28;19928;-54
2022/04/05 03:44:35;;;;;;;;;;;6.10;99.90;;;;;;5094404;28;19977;-55
2022/04/05 03:47:02;;;;;;;;;;;6.20;99.90;;;;;;5094552;28;19928;-54
2022/04/05 03:49:28;;;;;;;;;;;6.20;99.90;;;;;;5093814;28;19977;-54
2022/04/05 03:51:55;;;;;;;;;;;6.20;99.90;;;;;;5094297;28;19924;-54
2022/04/05 03:54:22;;;;;;;;;;;6.20;99.90;;;;;;5094611;28;19989;-56
2022/04/05 03:56:49;;;;;;;;;;;6.30;99.90;;;;;;5094431;28;20278;-55
2022/04/05 03:59:17;;;;;;;;;;;6.20;99.90;;;;;;5103336;28;19924;-55
2022/04/05 04:01:43;;;;;;;;;;;6.10;99.90;;;;;;5111248;28;19946;-54
2022/04/05 04:04:10;;;;;;;;;;;6.20;99.90;;;;;;5111864;28;19924;-54
2022/04/05 04:06:37;;;;;;;;;;;6.20;99.90;;;;;;5113745;28;19981;-55
2022/04/05 04:09:04;;;;;;;;;;;6.20;99.90;;;;;;5113161;28;20243;-55
2022/04/05 04:11:30;;;;;;;;;;;6.10;99.90;;;;;;5090240;28;20435;-54
2022/04/05 04:13:58;;;;;;;;;;;6.30;99.90;;;;;;5093713;28;19977;-56
2022/04/05 04:16:26;;;;;;;;;;;6.30;99.90;;;;;;5093873;28;19924;-55
2022/04/05 04:18:53;;;;;;;;;;;6.40;99.90;;;;;;5093157;28;20459;-55
2022/04/05 04:21:23;;;;;;;;;;;6.20;99.90;;;;;;5093456;28;20060;-54
2022/04/05 04:23:50;;;;;;;;;;;6.10;99.90;;;;;;5094197;28;19977;-55
2022/04/05 04:26:19;;;;;;;;;;;6.10;99.90;;;;;;5093415;28;19924;-55
2022/04/05 04:28:47;;;;;;;;;;;6.20;99.90;;;;;;5094133;28;19924;-56
2022/04/05 04:31:14;;;;;;;;;;;6.20;99.90;;;;;;5096976;28;19927;-53
2022/04/05 04:33:42;;;;;;;;;;;6.20;99.90;;;;;;5097263;28;19928;-53
2022/04/05 04:36:09;;;;;;;;;;;6.40;99.90;;;;;;5094874;28;19989;-53
2022/04/05 04:38:36;;;;;;;;;;;6.50;99.90;;;;;;5093198;28;19977;-55
2022/04/05 04:41:02;;;;;;;;;;;6.40;99.90;;;;;;5089101;28;19970;-54
2022/04/05 04:43:29;;;;;;;;;;;6.50;99.90;;;;;;5079744;28;19932;-54
2022/04/05 04:45:56;;;;;;;;;;;6.50;99.90;;;;;;5093925;28;20353;-53
2022/04/05 04:48:23;;;;;;;;;;;6.40;99.90;;;;;;5093689;28;20378;-54
2022/04/05 04:50:51;;;;;;;;;;;6.40;99.90;;;;;;5093179;28;20302;-54
2022/04/05 04:53:18;;;;;;;;;;;6.30;99.90;;;;;;5093304;28;19992;-55
2022/04/05 04:55:44;;;;;;;;;;;6.50;99.90;;;;;;5093050;28;19966;-54
2022/04/05 04:58:11;;;;;;;;;;;6.60;99.90;;;;;;5093224;28;19973;-54
2022/04/05 05:00:38;;;;;;;;;;;6.40;99.90;;;;;;5096568;28;19924;-54
2022/04/05 05:03:05;;;;;;;;;;;6.30;99.90;;;;;;5093313;28;19924;-54
2022/04/05 05:05:31;;;;;;;;;;;6.30;99.90;;;;;;5092863;28;19932;-54
2022/04/05 05:08:00;;;;;;;;;;;6.20;99.90;;;;;;5093465;28;19969;-54
2022/04/05 05:10:26;;;;;;;;;;;6.20;99.90;;;;;;5093027;28;19924;-54
2022/04/05 05:12:53;;;;;;;;;;;6.20;99.90;;;;;;5092816;28;19997;-54
2022/04/05 05:15:21;;;;;;;;;;;6.50;99.90;;;;;;5092917;28;19924;-54
2022/04/05 05:17:49;;;;;;;;;;;6.50;99.90;;;;;;5092495;28;19931;-54
2022/04/05 05:20:16;;;;;;;;;;;6.50;99.90;;;;;;5092725;28;19924;-54
2022/04/05 05:22:43;;;;;;;;;;;6.40;99.90;;;;;;5092622;28;19969;-54
2022/04/05 05:25:12;;;;;;;;;;;6.50;99.90;;;;;;5092832;28;19924;-54
2022/04/05 05:27:38;;;;;;;;;;;6.30;99.90;;;;;;5091669;28;19928;-56
2022/04/05 05:30:07;;;;;;;;;;;6.30;99.90;;;;;;5092508;28;19992;-56
2022/04/05 05:32:41;;;;;;;;;;;6.20;99.90;;;;;;5089412;28;20415;-55
2022/04/05 05:35:08;;;;;;;;;;;6.20;99.90;;;;;;5086885;28;19924;-55
2022/04/05 05:37:35;;;;;;;;;;;6.40;99.90;;;;;;5092222;28;19978;-54
2022/04/05 05:40:02;;;;;;;;;;;6.20;99.90;;;;;;5090958;28;19924;-54
2022/04/05 05:42:30;;;;;;;;;;;6.10;99.90;;;;;;5083008;28;20316;-54
2022/04/05 05:44:56;;;;;;;;;;;6.20;99.90;;;;;;5073405;28;19928;-54
2022/04/05 05:47:24;;;;;;;;;;;6.20;99.90;;;;;;5075472;28;19998;-55
2022/04/05 05:49:50;;;;;;;;;;;6.10;99.90;;;;;;5079945;28;19924;-55
2022/04/05 05:52:17;;;;;;;;;;;5.90;99.90;;;;;;5076030;28;19928;-55
2022/04/05 05:54:44;;;;;;;;;;;5.90;99.90;;;;;;5076547;28;19928;-55
2022/04/05 05:57:13;;;;;;;;;;;6.00;99.90;;;;;;5078923;28;19970;-55
2022/04/05 05:59:42;;;;;;;;;;;6.00;99.90;;;;;;5078298;28;19924;-55
2022/04/05 06:02:08;;;;;;;;;;;6.00;99.90;;;;;;5079497;28;19985;-55
2022/04/05 06:04:35;;;;;;;;;;;6.10;99.90;;;;;;5078932;28;20311;-54
2022/04/05 06:07:02;;;;;;;;;;;6.10;99.90;;;;;;5080793;28;19925;-55
2022/04/05 06:09:28;;;;;;;;;;;6.20;99.90;;;;;;5081639;28;19979;-54
2022/04/05 06:11:55;;;;;;;;;;;6.30;99.90;;;;;;5078876;28;19932;-52
2022/04/05 06:14:23;;;;;;;;;;;6.50;99.90;;;;;;5093476;28;20382;-55
2022/04/05 06:16:51;;;;;;;;;;;6.70;99.90;;;;;;5089254;28;19924;-55
2022/04/05 06:19:18;;;;;;;;;;;6.90;99.90;;;;;;5078041;28;19958;-55
2022/04/05 06:21:45;;;;;;;;;;;7.00;99.90;;;;;;5080932;28;19993;-55
2022/04/05 06:24:11;;;;;;;;;;;7.10;99.90;;;;;;5075932;28;19925;-55
2022/04/05 06:26:38;;;;;;;;;;;7.20;99.90;;;;;;5091564;28;20443;-55
2022/04/05 06:29:05;;;;;;;;;;;7.10;99.90;;;;;;5094854;28;19924;-54
2022/04/05 06:31:32;;;;;;;;;;;7.10;99.90;;;;;;5077320;28;19958;-54
2022/04/05 06:34:02;;;;;;;;;;;7.20;99.90;;;;;;5080933;28;19924;-54
2022/04/05 06:36:32;;;;;;;;;;;7.30;99.90;;;;;;5098043;28;19962;-55
2022/04/05 06:38:58;;;;;;;;;;;7.30;99.90;;;;;;5098234;28;19924;-55
2022/04/05 06:41:27;;;;;;;;;;;7.30;99.90;;;;;;5089156;28;19925;-55
2022/04/05 06:43:54;;;;;;;;;;;7.10;99.90;;;;;;5075846;28;19928;-55
2022/04/05 06:46:22;;;;;;;;;;;7.10;99.90;;;;;;5075544;28;19932;-55
2022/04/05 06:48:49;;;;;;;;;;;7.10;99.90;;;;;;5083930;28;19977;-55
2022/04/05 06:51:18;;;;;;;;;;;7.10;99.90;;;;;;5081014;28;19985;-54
2022/04/05 06:53:45;;;;;;;;;;;7.10;99.90;;;;;;5089663;28;20446;-54
2022/04/05 06:56:12;;;;;;;;;;;7.10;99.90;;;;;;5094065;28;19993;-54
2022/04/05 06:58:39;;;;;;;;;;;7.20;99.90;;;;;;5081773;28;19928;-54
2022/04/05 07:01:05;;;;;;;;;;;7.30;99.90;;;;;;5078784;28;19929;-54
2022/04/05 07:03:32;;;;;;;;;;;7.30;99.90;;;;;;5074722;28;20390;-55
2022/04/05 07:05:59;;;;;;;;;;;7.20;99.90;;;;;;5074444;28;19978;-54
2022/04/05 07:08:27;;;;;;;;;;;7.30;99.90;;;;;;5074210;28;19978;-54
2022/04/05 07:10:54;;;;;;;;;;;7.40;99.90;;;;;;5089057;28;19936;-56
2022/04/05 07:13:21;;;;;;;;;;;7.40;99.90;;;;;;5073613;28;20306;-55
2022/04/05 07:15:48;;;;;;;;;;;7.80;99.90;;;;;;5073457;28;19925;-54
2022/04/05 07:18:15;;;;;;;;;;;7.90;99.90;;;;;;5073406;28;20485;-54
2022/04/05 07:20:42;;;;;;;;;;;8.00;99.90;;;;;;5080570;28;20267;-55
2022/04/05 07:23:08;;;;;;;;;;;8.10;99.90;;;;;;5090140;28;19925;-54
2022/04/05 07:25:37;;;;;;;;;;;7.90;99.90;;;;;;5093744;28;19932;-53
2022/04/05 07:28:04;;;;;;;;;;;8.10;99.90;;;;;;5093116;28;20502;-54
2022/04/05 07:30:31;;;;;;;;;;;8.10;99.90;;;;;;5093326;28;19924;-54
2022/04/05 07:32:58;;;;;;;;;;;8.10;99.90;;;;;;5076275;28;20015;-54
2022/04/05 07:35:25;;;;;;;;;;;8.00;99.90;;;;;;5077292;28;20454;-55
2022/04/05 07:37:51;;;;;;;;;;;8.00;99.90;;;;;;5078197;28;19928;-54
2022/04/05 07:40:19;;;;;;;;;;;8.10;99.90;;;;;;5073154;28;19925;-54
2022/04/05 07:42:48;;;;;;;;;;;8.00;99.90;;;;;;5089329;28;19990;-54
2022/04/05 07:45:16;;;;;;;;;;;8.00;99.90;;;;;;5092283;28;19946;-55
2022/04/05 07:47:45;;;;;;;;;;;8.10;99.90;;;;;;5091902;28;19925;-54
2022/04/05 07:50:12;;;;;;;;;;;8.30;99.90;;;;;;5074027;28;20031;-54
2022/04/05 07:52:39;;;;;;;;;;;8.40;99.90;;;;;;5075147;28;19978;-54
2022/04/05 07:55:07;;;;;;;;;;;8.30;99.90;;;;;;5091623;28;20297;-54
2022/04/05 07:57:36;;;;;;;;;;;8.40;99.90;;;;;;5091839;28;20042;-54
2022/04/05 08:00:06;;;;;;;;;;;8.50;99.90;;;;;;5078942;28;19924;-53
2022/04/05 08:02:32;;;;;;;;;;;8.50;99.90;;;;;;5087396;28;19928;-54
2022/04/05 08:04:59;;;;;;;;;;;8.40;99.90;;;;;;5093233;28;19928;-54
2022/04/05 08:07:26;;;;;;;;;;;8.30;99.90;;;;;;5093488;28;19970;-54
2022/04/05 08:09:53;;;;;;;;;;;8.20;99.90;;;;;;5078417;28;19924;-55
2022/04/05 08:12:19;;;;;;;;;;;8.40;99.90;;;;;;5080544;28;20394;-55
2022/04/05 08:14:46;;;;;;;;;;;8.60;99.90;;;;;;5091569;28;19924;-57
2022/04/05 08:17:15;;;;;;;;;;;8.90;99.90;;;;;;5092069;28;20385;-55
2022/04/05 08:19:41;;;;;;;;;;;9.20;99.90;;;;;;5091978;28;19932;-55
2022/04/05 08:22:09;;;;;;;;;;;8.90;99.90;;;;;;5091203;28;20393;-54
2022/04/05 08:24:36;;;;;;;;;;;9.00;99.90;;;;;;5092392;28;19924;-55
2022/04/05 08:27:03;;;;;;;;;;;8.80;99.90;;;;;;5093416;28;19978;-54
2022/04/05 08:29:30;;;;;;;;;;;8.60;99.90;;;;;;5092473;28;19928;-55
2022/04/05 08:31:57;;;;;;;;;;;8.50;99.90;;;;;;5093622;28;19981;-54
2022/04/05 08:34:25;;;;;;;;;;;8.00;99.90;;;;;;5096724;28;19973;-56
2022/04/05 08:36:55;;;;;;;;;;;8.20;99.90;;;;;;5096562;28;19924;-54
2022/04/05 08:39:22;;;;;;;;;;;8.20;99.90;;;;;;5094069;28;19924;-53
2022/04/05 08:41:52;;;;;;;;;;;8.30;99.90;;;;;;5092172;28;20405;-55
2022/04/05 08:44:19;;;;;;;;;;;8.30;99.90;;;;;;5093410;28;19932;-54
2022/04/05 08:46:46;;;;;;;;;;;8.30;99.90;;;;;;5093793;28;19970;-55
2022/04/05 08:49:13;;;;;;;;;;;8.20;99.90;;;;;;5093255;28;20405;-54
2022/04/05 08:51:41;;;;;;;;;;;8.30;99.90;;;;;;5092985;28;20402;-54
2022/04/05 08:54:08;;;;;;;;;;;8.30;99.90;;;;;;5093502;28;19924;-54
2022/04/05 08:56:35;;;;;;;;;;;8.30;99.90;;;;;;5092986;28;19993;-54
2022/04/05 08:59:02;;;;;;;;;;;8.30;99.90;;;;;;5093251;28;19924;-54
2022/04/05 09:01:29;;;;;;;;;;;8.10;99.90;;;;;;5092476;28;19924;-55
2022/04/05 09:03:56;;;;;;;;;;;8.00;99.90;;;;;;5092337;28;19931;-53
2022/04/05 09:06:28;;;;;;;;;;;8.00;99.90;;;;;;5092601;28;19970;-54
2022/04/05 09:09:00;;;;;;;;;;;7.90;99.90;;;;;;5092367;28;19982;-54
2022/04/05 09:11:28;;;;;;;;;;;7.90;99.90;;;;;;5092198;28;19931;-55
2022/04/05 09:13:59;;;;;;;;;;;7.70;99.90;;;;;;5092156;28;19973;-54
2022/04/05 09:16:31;;;;;;;;;;;7.60;99.90;;;;;;5092850;28;19976;-55
2022/04/05 09:18:58;;;;;;;;;;;7.60;99.90;;;;;;5092635;28;19997;-54
2022/04/05 09:21:25;;;;;;;;;;;7.70;99.90;;;;;;5092064;28;19928;-55
2022/04/05 09:23:52;;;;;;;;;;;7.90;99.90;;;;;;5092387;28;19928;-54
2022/04/05 09:26:22;;;;;;;;;;;7.90;99.90;;;;;;5092800;28;20003;-54
2022/04/05 09:28:50;;;;;;;;;;;8.10;99.90;;;;;;5092422;28;19924;-56
2022/04/05 09:31:18;;;;;;;;;;;8.10;99.90;;;;;;5082349;28;19924;-56
2022/04/05 09:33:59;;;;;;;;;;;8.00;99.90;;;;;;5080464;28;19928;-54
2022/04/05 09:36:32;;;;;;;;;;;7.90;99.90;;;;;;5091975;28;19924;-54
2022/04/05 09:39:09;;;;;;;;;;;8.00;99.90;;;;;;5080616;28;19929;-54
2022/04/05 09:41:37;;;;;;;;;;;8.00;99.90;;;;;;5091442;28;19936;-55
2022/04/05 09:44:04;;;;;;;;;;;8.10;99.90;;;;;;5090882;28;19924;-54
2022/04/05 09:46:33;;;;;;;;;;;8.40;99.90;;;;;;5083806;28;19924;-55
2022/04/05 09:49:07;;;;;;;;;;;8.60;99.90;;;;;;5072679;28;20023;-55
2022/04/05 09:51:37;;;;;;;;;;;8.30;99.90;;;;;;5072752;28;20311;-55
2022/04/05 09:54:04;;;;;;;;;;;8.20;99.90;;;;;;5090768;28;19924;-55
2022/04/05 09:56:32;;;;;;;;;;;8.30;99.90;;;;;;5073960;28;19971;-55
2022/04/05 09:59:03;;;;;;;;;;;8.60;99.90;;;;;;5081721;28;19928;-56
2022/04/05 10:01:31;;;;;;;;;;;8.70;99.90;;;;;;5077542;28;19995;-56
2022/04/05 10:03:58;;;;;;;;;;;8.70;99.90;;;;;;5086341;28;19925;-55
2022/04/05 10:06:26;;;;;;;;;;;8.80;99.90;;;;;;5075140;28;19932;-56
2022/04/05 10:08:55;;;;;;;;;;;8.60;99.90;;;;;;5089987;28;19969;-56
2022/04/05 10:11:23;;;;;;;;;;;8.60;99.90;;;;;;5089346;28;19968;-55
2022/04/05 10:13:50;;;;;;;;;;;8.60;99.90;;;;;;5072738;28;20341;-55
2022/04/05 10:16:19;;;;;;;;;;;8.80;99.90;;;;;;5071523;28;20061;-55
2022/04/05 10:18:47;;;;;;;;;;;8.80;99.90;;;;;;5077438;28;19928;-55
2022/04/05 10:21:15;;;;;;;;;;;8.90;99.90;;;;;;5070900;28;19928;-55
2022/04/05 10:23:43;;;;;;;;;;;9.10;99.90;;;;;;5087934;28;20459;-55
2022/04/05 10:26:10;;;;;;;;;;;9.30;99.90;;;;;;5084826;28;20378;-55
2022/04/05 10:28:38;;;;;;;;;;;9.30;99.90;;;;;;5092409;28;19928;-55
2022/04/05 10:31:11;;;;;;;;;;;9.20;99.90;;;;;;5093053;28;20493;-57
2022/04/05 10:33:45;;;;;;;;;;;9.20;99.90;;;;;;5091444;28;20022;-54
2022/04/05 10:36:12;;;;;;;;;;;9.20;99.90;;;;;;5077586;28;19924;-54
2022/04/05 10:38:38;;;;;;;;;;;9.10;99.90;;;;;;5094161;28;19932;-55
2022/04/05 10:41:12;;;;;;;;;;;8.90;99.90;;;;;;5094244;28;19935;-55
2022/04/05 10:43:39;;;;;;;;;;;8.90;99.90;;;;;;5091799;28;19924;-55
2022/04/05 10:46:06;;;;;;;;;;;8.60;99.90;;;;;;5075040;28;20023;-55
2022/04/05 10:48:33;;;;;;;;;;;8.60;99.90;;;;;;5077235;28;20662;-55
2022/04/05 10:51:30;;;;;;;;;;;8.50;99.90;;;;;;5074900;28;19939;-55
2022/04/05 10:54:23;;;;;;;;;;;8.40;99.90;;;;;;5082838;28;19994;-55
2022/04/05 10:57:08;;;;;;;;;;;8.70;99.90;;;;;;5086944;28;19931;-55
2022/04/05 10:59:47;;;;;;;;;;;8.70;99.90;;;;;;5093456;28;19924;-55
2022/04/05 11:02:29;;;;;;;;;;;8.80;99.90;;;;;;5077136;28;20003;-55
2022/04/05 11:05:00;;;;;;;;;;;9.00;99.90;;;;;;5081658;28;19936;-56
2022/04/05 11:07:29;;;;;;;;;;;9.30;99.90;;;;;;5085878;28;20393;-55
2022/04/05 11:09:59;;;;;;;;;;;9.40;99.90;;;;;;5082369;28;19954;-55
2022/04/05 11:12:26;;;;;;;;;;;9.40;99.90;;;;;;5082081;28;19928;-54
2022/04/05 11:14:54;;;;;;;;;;;9.40;99.90;;;;;;5081894;28;20069;-55
2022/04/05 11:17:22;;;;;;;;;;;9.50;99.90;;;;;;5084669;28;19930;-55
2022/04/05 11:19:50;;;;;;;;;;;9.50;99.90;;;;;;5081760;28;19935;-55
2022/04/05 11:22:27;;;;;;;;;;;9.40;99.90;;;;;;5086521;28;20097;-55
2022/04/05 11:24:55;;;;;;;;;;;9.40;99.90;;;;;;5078074;28;19982;-55
2022/04/05 11:27:25;;;;;;;;;;;9.10;99.90;;;;;;5082219;28;19938;-55
2022/04/05 11:30:23;;;;;;;;;;;9.00;99.90;;;;;;5075731;28;19947;-55
2022/04/05 11:33:08;;;;;;;;;;;9.20;99.90;;;;;;5083516;28;19924;-55
2022/04/05 11:35:36;;;;;;;;;;;9.20;99.90;;;;;;5088964;28;19943;-55
2022/04/05 11:38:03;;;;;;;;;;;9.40;99.90;;;;;;5091330;28;19931;-56
2022/04/05 11:40:31;;;;;;;;;;;9.30;99.90;;;;;;5092193;28;19930;-56
2022/04/05 11:42:59;;;;;;;;;;;9.40;99.90;;;;;;5088923;28;19931;-56
2022/04/05 11:45:26;;;;;;;;;;;8.90;99.90;;;;;;5085785;28;19928;-56
2022/04/05 11:47:53;;;;;;;;;;;9.10;99.90;;;;;;5081674;28;19970;-56
2022/04/05 11:50:20;;;;;;;;;;;9.40;99.90;;;;;;5078081;28;19928;-57
2022/04/05 11:52:47;;;;;;;;;;;9.50;99.90;;;;;;5081137;28;20397;-56
2022/04/05 11:58:03;;;;;;;;;;;9.40;99.90;;;;;;5087851;28;19930;-56
2022/04/05 12:00:30;;;;;;;;;;;9.40;99.90;;;;;;5090418;28;19924;-56
2022/04/05 12:03:02;;;;;;;;;;;9.70;99.90;;;;;;5081027;28;19932;-55
2022/04/05 12:05:40;;;;;;;;;;;9.70;99.90;;;;;;5083857;28;20442;-55
2022/04/05 12:08:10;;;;;;;;;;;9.90;99.90;;;;;;5084210;28;20364;-55
2022/04/05 12:10:36;;;;;;;;;;;9.90;99.90;;;;;;5073383;28;20001;-56
2022/04/05 12:13:05;;;;;;;;;;;9.90;99.90;;;;;;5073215;28;19978;-56
2022/04/05 12:15:32;;;;;;;;;;;10.10;99.90;;;;;;5082201;28;19989;-56
2022/04/05 12:18:14;;;;;;;;;;;10.40;99.90;;;;;;5087742;28;20013;-56
2022/04/05 12:20:41;;;;;;;;;;;10.60;99.90;;;;;;5088460;28;19931;-56
2022/04/05 12:23:19;;;;;;;;;;;10.80;99.90;;;;;;5091167;28;19986;-56
2022/04/05 12:26:00;;;;;;;;;;;11.10;99.90;;;;;;5080590;28;19984;-57
2022/04/05 12:28:28;;;;;;;;;;;11.40;99.90;;;;;;5081697;28;19954;-57
2022/04/05 12:31:03;;;;;;;;;;;11.90;99.90;;;;;;5086483;28;20450;-57
2022/04/05 12:33:30;;;;;;;;;;;12.20;99.90;;;;;;5086955;28;19924;-56
2022/04/05 12:35:56;;;;;;;;;;;12.50;99.90;;;;;;5089946;28;19950;-56
2022/04/05 12:38:23;;;;;;;;;;;12.20;99.90;;;;;;5088840;28;19936;-56
2022/04/05 12:40:50;;;;;;;;;;;11.80;99.90;;;;;;5079619;28;19928;-55
2022/04/05 12:43:19;;;;;;;;;;;11.70;99.90;;;;;;5083298;28;19932;-56
2022/04/05 12:45:47;;;;;;;;;;;11.30;99.90;;;;;;5087346;28;19947;-56
2022/04/05 12:48:15;;;;;;;;;;;11.50;99.90;;;;;;5084403;28;20394;-56
2022/04/05 12:50:43;;;;;;;;;;;11.50;99.90;;;;;;5082090;28;19924;-56
2022/04/05 12:53:10;;;;;;;;;;;11.50;99.90;;;;;;5084353;28;20011;-56
2022/04/05 12:55:36;;;;;;;;;;;10.90;99.90;;;;;;5079780;28;19928;-56
2022/04/05 12:58:03;;;;;;;;;;;10.80;99.90;;;;;;5073444;28;19924;-56
2022/04/05 13:00:32;;;;;;;;;;;10.60;99.90;;;;;;5071017;28;19925;-55
2022/04/05 13:03:10;;;;;;;;;;;10.50;99.90;;;;;;5080321;28;19985;-56
2022/04/05 13:08:27;;;;;;;;;;;10.70;99.90;;;;;;5071044;28;19958;-55
2022/04/05 13:10:54;;;;;;;;;;;10.70;99.90;;;;;;5070992;28;19928;-55
2022/04/05 13:13:22;;;;;;;;;;;10.70;99.90;;;;;;5072270;28;19982;-56
2022/04/05 13:15:50;;;;;;;;;;;10.80;99.90;;;;;;5074064;28;20282;-56
2022/04/05 13:18:18;;;;;;;;;;;10.70;99.90;;;;;;5082579;28;19993;-55
2022/04/05 13:20:58;;;;;;;;;;;10.70;99.90;;;;;;5071584;28;19925;-56
2022/04/05 13:23:26;;;;;;;;;;;10.70;99.90;;;;;;5071387;28;20019;-56
2022/04/05 13:25:52;;;;;;;;;;;10.70;99.90;;;;;;5077015;28;19925;-56
2022/04/05 13:28:19;;;;;;;;;;;10.60;99.90;;;;;;5075570;28;20017;-56
2022/04/05 13:30:47;;;;;;;;;;;10.60;99.90;;;;;;5071104;28;19947;-56
2022/04/05 13:33:14;;;;;;;;;;;10.60;99.90;;;;;;5087594;28;20413;-56
2022/04/05 13:35:42;;;;;;;;;;;10.90;99.90;;;;;;5070475;28;19925;-56
2022/04/05 13:38:09;;;;;;;;;;;11.10;99.90;;;;;;5070472;28;20424;-57
2022/04/05 13:40:36;;;;;;;;;;;11.40;99.90;;;;;;5070616;28;20061;-56
2022/04/05 13:43:03;;;;;;;;;;;11.60;99.90;;;;;;5089573;28;20000;-56
2022/04/05 13:45:30;;;;;;;;;;;11.40;99.90;;;;;;5086793;28;19985;-56
2022/04/05 13:47:57;;;;;;;;;;;11.50;99.90;;;;;;5089461;28;19928;-57
2022/04/05 13:50:23;;;;;;;;;;;11.90;99.90;;;;;;5089627;28;19932;-57
2022/04/05 13:52:52;;;;;;;;;;;11.80;99.90;;;;;;5070656;28;20020;-57
2022/04/05 13:55:19;;;;;;;;;;;11.70;99.90;;;;;;5070557;28;19970;-57
2022/04/05 13:57:45;;;;;;;;;;;11.60;99.90;;;;;;5070826;28;20002;-57
2022/04/05 14:00:13;;;;;;;;;;;11.40;99.90;;;;;;5079613;28;19924;-57
2022/04/05 14:02:40;;;;;;;;;;;11.30;99.90;;;;;;5082686;28;19974;-56
2022/04/05 14:05:07;;;;;;;;;;;11.10;99.90;;;;;;5070271;28;19924;-57
2022/04/05 14:07:34;;;;;;;;;;;11.10;99.90;;;;;;5069979;28;20016;-57
2022/04/05 14:10:02;;;;;;;;;;;11.30;99.90;;;;;;5074726;28;19969;-57
2022/04/05 14:12:29;;;;;;;;;;;11.50;99.90;;;;;;5077230;28;19994;-57
2022/04/05 14:14:55;;;;;;;;;;;11.40;99.90;;;;;;5085109;28;19924;-57
2022/04/05 14:17:22;;;;;;;;;;;11.40;99.90;;;;;;5094783;28;19928;-57
2022/04/05 14:19:49;;;;;;;;;;;11.40;99.90;;;;;;5094724;28;19970;-57
2022/04/05 14:22:17;;;;;;;;;;;11.50;99.90;;;;;;5094594;28;20267;-57
2022/04/05 14:24:43;;;;;;;;;;;11.80;99.90;;;;;;5095251;28;19932;-56
2022/04/05 14:27:11;;;;;;;;;;;11.80;99.90;;;;;;5092600;28;19924;-57
2022/04/05 14:29:38;;;;;;;;;;;11.40;99.90;;;;;;5094202;28;20401;-56
2022/04/05 14:32:06;;;;;;;;;;;11.50;99.90;;;;;;5094734;28;20282;-56
2022/04/05 14:34:32;;;;;;;;;;;11.50;99.90;;;;;;5094620;28;19930;-56
2022/04/05 14:36:59;;;;;;;;;;;11.50;99.90;;;;;;5094391;28;20312;-56
2022/04/05 14:39:26;;;;;;;;;;;11.60;99.90;;;;;;5094627;28;19969;-56